Information for Marshall Islands International Airport

back to airport list

ICAO Code:PKMJ Country:Marshall Islands
Airport Name:Marshall Islands International Airport Is Hub:No
Latitude:7.06472 Longitude:171.272
Scheduled Departures:0 Scheduled Arrivals:1
Total Past Departures:1 Total Past Arrivals:1
Pilots Based:0 Current Pilot Location:0
PKMJ 242052Z 03005KT 15SM FEW015 SCT050 BKN300 30/25 A2984 RMK FIRST


Nearby Destination Airports

ICAO Airport Country GC Distance View
No destination airports within a 500 NM radius!


+ Show Timetable

Scheduled Departures from PKMJ

Flight To Destination Days Dep. Time Aircraft Info
No Scheduled Departures!


Scheduled Arrivals to PKMJ

Flight From Origin Days Arr. Time Aircraft Info
ASXC40 PGUM Guam International Airport Su M T W Th F S 16:30 B738 View Info
+ Show Recent Flight Info

Recent Departures from PKMJ

Flight To Destination Pilot Flighttime Landingrate Aircraft View
ASXC43 PHNL Honolulu Intl Krzysztof H. Blaszkow 04.59.47 -145 ft/m B738 View Report


Recent Arrivals to PKMJ

Flight From Origin Pilot Flighttime Landingrate Aircraft View
ASXC40 PGUM Guam International Airport Krzysztof H. Blaszkow 04.12.02 -333 ft/m B738 View Report
+ Show Pilot Information

Pilots based at PKMJ

Avatar Pilot ID Name Location Rank View Profile
No Pilots are based at this airport!


Pilots currently at PKMJ

Avatar Pilot ID Name Location Rank On Location since View Profile
Currently there are no pilots at this airport!
- Hide Map